Time;durP1;ratioP1;P1;durP2;ratioP2;P2;SDS_P1;SDS_P2;PMS_P1;PMS_P2;Temp;Humidity;BMP_temperature;BMP_pressure;BME280_temperature;BME280_humidity;BME280_pressure;Samples;Min_cycle;Max_cycle;Signal;HPM_P1;HPM_P2
2022/12/13 00:01:20;;;;;;;14.73;6.57;;;;;;;-0.01;59.17;99396.28;4384415;32;20118;-89
2022/12/13 00:03:46;;;;;;;15.15;6.72;;;;;;;-0.20;59.16;99397.06;4391037;32;20159;-89
2022/12/13 00:06:11;;;;;;;15.25;6.75;;;;;;;-0.10;59.16;99403.91;4420280;32;20093;-89
2022/12/13 00:08:37;;;;;;;12.48;6.37;;;;;;;-0.03;59.17;99397.97;4411800;32;20509;-88
2022/12/13 00:11:05;;;;;;;16.50;7.10;;;;;;;0.02;59.18;99409.09;4406197;32;20477;-88
2022/12/13 00:13:31;;;;;;;17.08;6.68;;;;;;;-0.13;59.17;99407.31;4396167;32;20137;-88
2022/12/13 00:16:02;;;;;;;13.15;5.93;;;;;;;-0.11;59.17;99399.66;4392112;32;20102;-88
2022/12/13 00:18:28;;;;;;;12.85;6.78;;;;;;;-0.09;59.16;99398.81;4383759;32;20086;-88
2022/12/13 00:20:53;;;;;;;14.77;6.00;;;;;;;-0.13;59.17;99409.03;4383751;32;20826;-87
2022/12/13 00:23:19;;;;;;;12.93;6.47;;;;;;;-0.16;59.16;99407.31;4397182;32;20132;-87
2022/12/13 00:25:44;;;;;;;15.82;7.82;;;;;;;-0.18;59.16;99398.78;4389832;32;20089;-88
2022/12/13 00:28:10;;;;;;;14.57;6.80;;;;;;;-0.23;59.15;99410.69;4408860;32;20152;-87
2022/12/13 00:30:35;;;;;;;14.73;7.07;;;;;;;-0.18;59.16;99405.59;4410867;32;20135;-87
2022/12/13 00:33:01;;;;;;;14.48;6.30;;;;;;;-0.18;59.16;99409.00;4411360;32;20175;-88
2022/12/13 00:35:26;;;;;;;17.02;6.55;;;;;;;-0.06;59.18;99421.00;4409351;32;20161;-87
2022/12/13 00:37:52;;;;;;;17.37;7.03;;;;;;;-0.08;59.16;99413.31;4385999;32;20466;-87
2022/12/13 00:40:17;;;;;;;13.93;6.55;;;;;;;-0.10;59.16;99414.16;4410665;32;20188;-85
2022/12/13 00:42:42;;;;;;;13.45;6.75;;;;;;;-0.17;59.16;99417.53;4395689;32;20098;-86
2022/12/13 00:45:08;;;;;;;14.60;6.93;;;;;;;-0.11;59.17;99418.41;4401107;32;20136;-87
2022/12/13 00:47:34;;;;;;;14.38;6.45;;;;;;;-0.18;59.16;99418.38;4398764;32;20106;-90
2022/12/13 00:50:00;;;;;;;16.40;6.07;;;;;;;-0.13;59.17;99424.38;4377643;32;20751;-90
2022/12/13 00:52:25;;;;;;;13.70;6.35;;;;;;;-0.26;59.16;99423.44;4394376;32;20176;-89
2022/12/13 00:54:50;;;;;;;17.65;7.28;;;;;;;-0.29;59.15;99433.62;4403684;32;20129;-90
2022/12/13 00:57:16;;;;;;;15.82;6.95;;;;;;;-0.16;59.16;99439.72;4407778;32;20131;-88
2022/12/13 00:59:41;;;;;;;19.50;7.28;;;;;;;-0.11;59.17;99438.88;4398838;32;20395;-89
2022/12/13 01:02:07;;;;;;;15.73;7.18;;;;;;;-0.11;59.16;99445.69;4403244;32;20458;-89
2022/12/13 01:04:32;;;;;;;14.60;6.65;;;;;;;-0.01;59.17;99447.44;4400411;32;20090;-90
2022/12/13 01:07:00;;;;;;;13.27;6.45;;;;;;;0.18;59.18;99445.84;4388373;32;20101;-89
2022/12/13 01:09:28;;;;;;;19.48;7.68;;;;;;;0.24;59.19;99446.75;4408650;32;20770;-90
2022/12/13 01:12:01;;;;;;;18.60;6.75;;;;;;;0.08;59.17;99444.97;4412839;32;20469;-90
2022/12/13 01:14:27;;;;;;;14.77;6.70;;;;;;;0.26;59.18;99451.87;4395307;32;20153;-90
2022/12/13 01:16:55;;;;;;;11.45;5.25;;;;;;;0.06;59.17;99451.78;4397827;32;20125;-91
2022/12/13 01:19:25;;;;;;;12.77;5.97;;;;;;;0.27;59.19;99451.03;4388173;32;20113;-90
2022/12/13 01:21:54;;;;;;;19.08;6.60;;;;;;;0.28;59.18;99451.03;4410388;32;20137;-90
2022/12/13 01:24:21;;;;;;;11.85;5.72;;;;;;;0.07;59.17;99453.47;4397696;32;20117;-91
2022/12/13 01:26:47;;;;;;;14.93;7.97;;;;;;;0.14;59.18;99454.34;4389384;32;20150;-91
2022/12/13 01:29:12;;;;;;;16.77;6.60;;;;;;;0.29;59.18;99457.84;4421029;32;20220;-91
2022/12/13 01:31:40;;;;;;;15.30;7.20;;;;;;;0.20;59.18;99454.38;4387379;32;20102;-89
2022/12/13 01:34:13;;;;;;;15.98;6.62;;;;;;;0.20;59.18;99450.13;4410378;32;20161;-89
2022/12/13 01:36:39;;;;;;;15.40;7.10;;;;;;;0.05;59.17;99455.19;4383833;32;20148;-89
2022/12/13 01:39:05;;;;;;;16.12;6.90;;;;;;;0.17;59.18;99452.66;4391441;32;20184;-89
2022/12/13 01:41:31;;;;;;;15.90;7.00;;;;;;;0.07;59.17;99461.16;4387904;32;20455;-89
2022/12/13 01:43:59;;;;;;;17.45;7.68;;;;;;;0.09;59.17;99450.94;4380682;32;20479;-89
2022/12/13 01:46:25;;;;;;;14.48;7.18;;;;;;;0.02;59.18;99455.16;4395188;32;20165;-89
2022/12/13 01:48:55;;;;;;;14.80;7.32;;;;;;;0.17;59.18;99462.06;4388371;32;20114;-88
2022/12/13 01:51:24;;;;;;;16.83;7.30;;;;;;;0.09;59.18;99464.56;4397831;32;20106;-88
2022/12/13 01:53:50;;;;;;;21.80;7.60;;;;;;;0.12;59.18;99471.41;4388016;32;20093;-89
2022/12/13 01:56:22;;;;;;;18.42;7.50;;;;;;;0.13;59.18;99465.44;4394719;32;20444;-89
2022/12/13 01:58:47;;;;;;;19.83;8.10;;;;;;;0.05;59.17;99467.97;4400290;32;20130;-89
2022/12/13 02:01:13;;;;;;;17.02;8.00;;;;;;;-0.11;59.17;99468.72;4400317;32;20144;-89
2022/12/13 02:03:38;;;;;;;19.45;8.38;;;;;;;-0.02;59.17;99471.31;4387637;32;20356;-88
2022/12/13 02:06:10;;;;;;;20.95;7.55;;;;;;;0.04;59.17;99462.84;4400317;32;20402;-89
2022/12/13 02:08:36;;;;;;;15.10;6.45;;;;;;;-0.21;59.16;99467.81;4388051;32;20180;-89
2022/12/13 02:11:01;;;;;;;17.08;8.25;;;;;;;-0.20;59.16;99463.56;4412411;32;20114;-89
2022/12/13 02:13:27;;;;;;;18.75;7.35;;;;;;;-0.36;59.15;99468.56;4412597;32;20137;-88
2022/12/13 02:16:28;;;;;;;16.02;7.03;;;;;;;-0.23;59.16;99460.97;4409385;32;20094;-88
2022/12/13 02:19:38;;;;;;;20.20;8.25;;;;;;;-0.28;59.16;99470.31;4398015;32;20114;-90
2022/12/13 02:22:12;;;;;;;25.73;7.95;;;;;;;-0.24;59.16;99465.22;4383990;32;20132;-89
2022/12/13 02:24:56;;;;;;;23.35;9.05;;;;;;;-0.36;59.15;99466.00;4397484;32;20104;-90
2022/12/13 02:27:42;;;;;;;29.55;10.80;;;;;;;-0.40;59.15;99465.97;4390783;32;20107;-89
2022/12/13 02:30:23;;;;;;;29.00;10.02;;;;;;;-0.36;59.14;99460.03;4399153;32;20169;-88
2022/12/13 02:32:56;;;;;;;30.35;11.07;;;;;;;-0.51;59.14;99459.91;4387998;32;20180;-89
2022/12/13 02:35:30;;;;;;;22.02;8.10;;;;;;;-0.70;59.13;99462.34;4399874;32;20136;-88
2022/12/13 02:38:17;;;;;;;21.02;8.73;;;;;;;-0.54;59.14;99470.09;4399743;32;20104;-88
2022/12/13 02:40:49;;;;;;;15.52;7.25;;;;;;;-0.58;59.13;99465.81;4412456;32;20105;-89
2022/12/13 02:43:21;;;;;;;16.65;7.15;;;;;;;-0.68;59.13;99470.00;4400239;32;20200;-88
2022/12/13 02:45:48;;;;;;;19.40;8.32;;;;;;;-0.69;59.14;99469.16;4388772;32;20089;-88
2022/12/13 02:48:17;;;;;;;17.73;6.93;;;;;;;-0.84;59.12;99463.03;4397485;32;20107;-88
2022/12/13 02:50:43;;;;;;;17.52;6.78;;;;;;;-0.83;59.12;99470.72;4395723;32;20469;-87
2022/12/13 02:53:08;;;;;;;15.50;7.68;;;;;;;-0.78;59.13;99479.28;4391895;32;20153;-88
2022/12/13 02:55:37;;;;;;;19.62;7.87;;;;;;;-0.78;59.13;99473.31;4397988;32;20098;-87
2022/12/13 02:58:02;;;;;;;19.62;7.82;;;;;;;-0.74;59.12;99480.16;4381271;32;20105;-88
2022/12/13 03:01:11;;;;;;;11.85;6.15;;;;;;;-0.67;59.13;99477.69;4379413;32;20153;-87
2022/12/13 03:03:42;;;;;;;14.60;7.03;;;;;;;-0.91;59.12;99476.63;4405348;32;20738;-90
2022/12/13 03:06:32;;;;;;;16.58;7.22;;;;;;;-0.59;59.13;99469.22;4395444;32;20166;-88
2022/12/13 03:09:35;;;;;;;18.40;7.95;;;;;;;-0.76;59.13;99482.69;4392004;32;20109;-89
2022/12/13 03:15:35;;;;;;;13.75;7.18;;;;;;;-0.73;59.12;99475.06;4423342;32;20830;-88
2022/12/13 03:18:14;;;;;;;14.87;7.43;;;;;;;-0.68;59.13;99475.97;4391504;32;20086;-88
2022/12/13 03:20:43;;;;;;;15.70;7.32;;;;;;;-0.67;59.13;99467.47;4385444;32;20761;-89
2022/12/13 03:23:09;;;;;;;15.70;6.87;;;;;;;-1.02;59.12;99474.78;4380970;32;20090;-88
2022/12/13 03:25:35;;;;;;;18.83;7.78;;;;;;;-0.94;59.12;99473.19;4389587;32;20512;-88
2022/12/13 03:28:00;;;;;;;18.10;8.07;;;;;;;-0.86;59.12;99472.41;4398254;32;20094;-88
2022/12/13 03:30:32;;;;;;;16.85;7.70;;;;;;;-1.05;59.11;99467.09;4384618;32;20448;-88
2022/12/13 03:32:57;;;;;;;16.77;7.00;;;;;;;-1.04;59.11;99481.59;4399427;32;20094;-88
2022/12/13 03:35:23;;;;;;;19.40;7.93;;;;;;;-1.13;59.11;99480.66;4399369;32;20132;-88
2022/12/13 03:37:49;;;;;;;14.93;7.32;;;;;;;-1.17;59.10;99486.56;4396913;32;20141;-88
2022/12/13 03:40:14;;;;;;;15.23;6.85;;;;;;;-1.09;59.10;99487.50;4390984;32;20110;-89
2022/12/13 03:42:40;;;;;;;17.95;7.70;;;;;;;-0.96;59.11;99490.16;4387449;32;20439;-88
2022/12/13 03:45:06;;;;;;;16.60;7.50;;;;;;;-0.91;59.12;99491.94;4396417;32;20224;-88
2022/12/13 03:47:31;;;;;;;18.02;8.18;;;;;;;-0.89;59.12;99491.13;4386508;32;20431;-88
2022/12/13 03:49:56;;;;;;;17.30;7.57;;;;;;;-0.89;59.12;99492.81;4386690;32;20400;-88
2022/12/13 03:52:22;;;;;;;18.70;8.48;;;;;;;-0.81;59.12;99486.06;4411760;32;20173;-88
2022/12/13 03:54:47;;;;;;;22.65;10.02;;;;;;;-0.85;59.12;99492.00;4390875;32;20235;-88
2022/12/13 03:57:14;;;;;;;23.98;9.93;;;;;;;-1.13;59.11;99483.19;4396958;32;20145;-88
2022/12/13 03:59:40;;;;;;;26.80;9.18;;;;;;;-1.05;59.11;99489.25;4413784;32;20477;-88
2022/12/13 04:02:05;;;;;;;20.40;8.57;;;;;;;-1.04;59.11;99484.13;4412074;32;20153;-87
2022/12/13 04:04:31;;;;;;;16.05;7.85;;;;;;;-1.11;59.10;99484.06;4399428;32;20101;-87
2022/12/13 04:06:56;;;;;;;19.65;8.70;;;;;;;-0.87;59.12;99483.47;4399450;32;20115;-87
2022/12/13 04:09:21;;;;;;;20.70;7.90;;;;;;;-1.06;59.11;99492.63;4406354;32;20082;-88
2022/12/13 04:14:38;;;;;;;16.90;8.18;;;;;;;-1.26;59.10;99500.06;4397237;32;20110;-89
2022/12/13 04:17:04;;;;;;;16.92;7.37;;;;;;;-1.24;59.09;99504.34;4396349;32;20140;-89
2022/12/13 04:19:29;;;;;;;21.25;8.70;;;;;;;-1.18;59.10;99505.25;4378163;32;20096;-89
2022/12/13 04:21:55;;;;;;;17.27;8.50;;;;;;;-1.32;59.09;99510.22;4421433;32;20158;-88
2022/12/13 04:24:21;;;;;;;17.67;9.13;;;;;;;-1.41;59.09;99503.31;4398870;32;20152;-89
2022/12/13 04:26:46;;;;;;;18.95;7.85;;;;;;;-1.55;59.08;99508.25;4396515;32;20098;-87
2022/12/13 04:29:12;;;;;;;20.75;7.40;;;;;;;-1.49;59.08;99502.34;4379689;32;20125;-87
2022/12/13 04:31:37;;;;;;;19.30;7.87;;;;;;;-1.63;59.08;99499.66;4399086;32;20187;-90
2022/12/13 04:34:03;;;;;;;25.23;8.38;;;;;;;-1.49;59.08;99496.41;4411751;32;20105;-89
2022/12/13 04:36:28;;;;;;;18.65;7.93;;;;;;;-1.41;59.09;99497.37;4411721;32;20093;-88
2022/12/13 04:38:54;;;;;;;18.00;7.93;;;;;;;-1.52;59.09;99497.22;4396667;32;20386;-89
2022/12/13 04:41:19;;;;;;;16.05;7.32;;;;;;;-1.46;59.08;99497.28;4403458;32;20426;-89
2022/12/13 04:43:49;;;;;;;21.05;8.48;;;;;;;-1.58;59.08;99500.56;4395726;32;20164;-87
2022/12/13 04:46:15;;;;;;;18.15;7.57;;;;;;;-1.56;59.08;99498.03;4386109;32;20094;-88
2022/12/13 04:48:40;;;;;;;19.17;8.43;;;;;;;-1.67;59.08;99500.41;4385971;32;20136;-88
2022/12/13 04:51:05;;;;;;;22.13;7.90;;;;;;;-1.71;59.07;99502.91;4398888;32;20132;-88
2022/12/13 04:53:31;;;;;;;21.80;8.38;;;;;;;-1.67;59.08;99508.06;4390640;32;20159;-88
2022/12/13 04:55:56;;;;;;;18.42;8.48;;;;;;;-1.78;59.07;99501.12;4409579;32;20089;-88
2022/12/13 04:58:22;;;;;;;20.85;8.77;;;;;;;-1.76;59.07;99502.88;4410994;32;20102;-88
2022/12/13 05:00:47;;;;;;;19.23;8.45;;;;;;;-1.70;59.07;99502.09;4386156;32;20163;-89
2022/12/13 05:03:13;;;;;;;19.12;8.02;;;;;;;-1.65;59.08;99503.88;4396099;32;20436;-87
2022/12/13 05:05:39;;;;;;;21.55;8.95;;;;;;;-1.68;59.07;99495.31;4391468;32;20105;-90
2022/12/13 05:08:05;;;;;;;20.42;7.95;;;;;;;-1.75;59.06;99494.38;4398843;32;20108;-89
2022/12/13 05:10:30;;;;;;;19.45;8.48;;;;;;;-1.86;59.06;99498.50;4398365;32;20110;-90
2022/12/13 05:12:57;;;;;;;19.12;7.60;;;;;;;-2.10;59.05;99500.69;4410895;32;20155;-89
2022/12/13 05:15:23;;;;;;;15.10;7.72;;;;;;;-1.92;59.06;99503.47;4385948;32;20812;-89
2022/12/13 05:17:48;;;;;;;17.37;8.05;;;;;;;-1.97;59.05;99507.66;4405142;32;20439;-90
2022/12/13 05:20:14;;;;;;;18.73;7.32;;;;;;;-1.86;59.06;99504.44;4394655;32;20106;-88
2022/12/13 05:22:39;;;;;;;23.25;9.15;;;;;;;-1.99;59.05;99510.19;4403866;32;20105;-90
2022/12/13 05:25:05;;;;;;;19.00;7.82;;;;;;;-1.93;59.06;99510.28;4397496;32;20150;-89
2022/12/13 05:27:31;;;;;;;13.75;7.28;;;;;;;-1.87;59.07;99517.19;4385920;32;20373;-87
2022/12/13 05:29:56;;;;;;;19.55;7.78;;;;;;;-1.95;59.06;99513.66;4395222;32;20131;-88
2022/12/13 05:32:22;;;;;;;17.60;8.57;;;;;;;-2.00;59.05;99513.59;4385205;32;20101;-88
2022/12/13 05:34:47;;;;;;;19.37;7.85;;;;;;;-2.03;59.05;99500.78;4404730;32;20235;-88
2022/12/13 05:37:12;;;;;;;19.60;7.55;;;;;;;-2.10;59.06;99509.19;4395355;32;20094;-88
2022/12/13 05:39:38;;;;;;;18.27;8.48;;;;;;;-1.85;59.07;99510.41;4408169;32;20105;-89
2022/12/13 05:42:03;;;;;;;22.27;9.10;;;;;;;-1.86;59.06;99521.44;4396318;32;20158;-89
2022/12/13 05:44:30;;;;;;;22.25;9.45;;;;;;;-1.81;59.07;99512.16;4386505;32;20119;-89
2022/12/13 05:46:55;;;;;;;21.98;9.50;;;;;;;-1.83;59.06;99511.28;4395435;32;20112;-88
2022/12/13 05:49:21;;;;;;;22.65;9.35;;;;;;;-1.97;59.05;99513.63;4384928;32;20157;-87
2022/12/13 05:51:46;;;;;;;23.02;8.85;;;;;;;-2.00;59.05;99505.06;4398868;32;20129;-88
2022/12/13 05:54:12;;;;;;;20.10;8.15;;;;;;;-2.11;59.04;99504.94;4400675;32;20153;-88
2022/12/13 05:56:37;;;;;;;21.08;8.68;;;;;;;-2.14;59.04;99509.97;4397508;32;20173;-88
2022/12/13 05:59:02;;;;;;;17.27;8.63;;;;;;;-2.06;59.05;99510.09;4412319;32;20132;-88
2022/12/13 06:01:28;;;;;;;18.12;7.85;;;;;;;-2.21;59.04;99515.81;4399903;32;20105;-89
2022/12/13 06:03:53;;;;;;;22.37;8.23;;;;;;;-2.23;59.04;99517.47;4412100;32;20741;-87
2022/12/13 06:06:20;;;;;;;17.92;7.30;;;;;;;-2.23;59.04;99526.00;4412393;32;20101;-86
2022/12/13 06:08:45;;;;;;;19.30;9.55;;;;;;;-2.05;59.05;99525.41;4410499;32;20118;-88
2022/12/13 06:11:10;;;;;;;18.85;8.63;;;;;;;-2.10;59.06;99528.75;4407589;32;20106;-88
2022/12/13 06:13:36;;;;;;;19.33;8.40;;;;;;;-2.30;59.04;99519.09;4396832;32;20138;-89
2022/12/13 06:16:03;;;;;;;19.33;7.80;;;;;;;-2.17;59.05;99523.53;4405557;32;20165;-89
2022/12/13 06:18:32;;;;;;;15.80;6.82;;;;;;;-2.04;59.05;99524.59;4399885;32;20109;-88
2022/12/13 06:20:59;;;;;;;21.25;8.73;;;;;;;-2.10;59.05;99526.19;4379503;32;20137;-87
2022/12/13 06:23:24;;;;;;;20.98;8.13;;;;;;;-2.32;59.04;99527.56;4409262;32;20093;-87
2022/12/13 06:25:50;;;;;;;19.12;8.10;;;;;;;-2.26;59.04;99530.19;4412285;32;20093;-88
2022/12/13 06:28:16;;;;;;;19.60;8.38;;;;;;;-2.61;59.03;99532.16;4395213;32;20572;-85
2022/12/13 06:30:41;;;;;;;21.15;8.77;;;;;;;-2.55;59.01;99538.22;4387462;32;20098;-89
2022/12/13 06:33:07;;;;;;;21.20;8.60;;;;;;;-2.61;59.02;99542.34;4406662;32;20102;-88
2022/12/13 06:35:33;;;;;;;20.27;8.90;;;;;;;-2.50;59.02;99543.41;4412190;32;20459;-88
2022/12/13 06:37:58;;;;;;;18.23;8.88;;;;;;;-2.59;59.02;99550.91;4390018;32;20102;-88
2022/12/13 06:40:23;;;;;;;20.23;8.60;;;;;;;-2.37;59.03;99552.09;4409816;32;20147;-88
2022/12/13 06:42:49;;;;;;;19.98;7.95;;;;;;;-2.57;59.02;99557.72;4391109;32;20200;-89
2022/12/13 06:45:14;;;;;;;20.92;7.87;;;;;;;-2.54;59.02;99556.91;4412287;32;20102;-89
2022/12/13 06:47:40;;;;;;;17.83;7.68;;;;;;;-2.68;59.02;99555.81;4385266;32;20109;-89
2022/12/13 06:50:05;;;;;;;23.08;9.18;;;;;;;-2.61;59.02;99553.38;4400660;32;20106;-88
2022/12/13 06:52:31;;;;;;;20.98;8.30;;;;;;;-2.36;59.03;99553.84;4397131;32;20094;-89
2022/12/13 06:54:56;;;;;;;19.92;7.75;;;;;;;-2.30;59.04;99556.47;4397479;32;20114;-89
2022/12/13 06:57:22;;;;;;;21.30;8.27;;;;;;;-2.12;59.05;99564.41;4405969;32;20172;-88
2022/12/13 06:59:47;;;;;;;19.25;8.32;;;;;;;-2.15;59.04;99561.78;4389765;32;20167;-89
2022/12/13 07:02:13;;;;;;;18.17;8.45;;;;;;;-2.38;59.03;99573.31;4396849;32;20457;-89
2022/12/13 07:04:38;;;;;;;20.00;7.85;;;;;;;-2.27;59.03;99582.00;4399791;32;20094;-88
2022/12/13 07:07:04;;;;;;;19.27;8.02;;;;;;;-2.16;59.05;99578.78;4397452;32;20114;-89
2022/12/13 07:09:29;;;;;;;20.67;9.27;;;;;;;-2.23;59.05;99583.78;4380271;32;20146;-89
2022/12/13 07:11:55;;;;;;;21.33;9.27;;;;;;;-2.26;59.03;99581.19;4376676;32;20351;-89
2022/12/13 07:14:20;;;;;;;20.45;9.90;;;;;;;-2.31;59.04;99582.78;4399493;32;20093;-89
2022/12/13 07:16:46;;;;;;;20.42;9.35;;;;;;;-2.29;59.04;99581.13;4397942;32;20457;-88
2022/12/13 07:19:11;;;;;;;18.15;8.65;;;;;;;-2.21;59.04;99582.97;4396674;32;20146;-89
2022/12/13 07:21:38;;;;;;;24.17;8.98;;;;;;;-2.14;59.05;99594.09;4405997;32;20113;-89
2022/12/13 07:24:04;;;;;;;22.77;10.00;;;;;;;-2.02;59.05;99584.13;4399766;32;20089;-88
2022/12/13 07:26:30;;;;;;;19.42;9.27;;;;;;;-2.00;59.06;99586.69;4406387;32;20568;-89
2022/12/13 07:28:55;;;;;;;21.12;9.30;;;;;;;-1.99;59.06;99588.41;4396070;32;20102;-89
2022/12/13 07:31:21;;;;;;;19.05;7.87;;;;;;;-1.77;59.07;99581.94;4398654;32;20089;-89
2022/12/13 07:33:46;;;;;;;22.15;8.52;;;;;;;-1.76;59.06;99581.97;4397797;32;20120;-89
2022/12/13 07:36:17;;;;;;;25.02;10.32;;;;;;;-1.48;59.09;99578.09;4415922;32;20216;-89
2022/12/13 07:38:43;;;;;;;20.83;9.02;;;;;;;-1.35;59.09;99584.22;4411420;32;20132;-89
2022/12/13 07:41:08;;;;;;;20.40;9.05;;;;;;;-1.22;59.10;99593.75;4389634;32;20101;-89
2022/12/13 07:43:34;;;;;;;20.40;8.43;;;;;;;-1.33;59.09;99590.22;4396358;32;20144;-88
2022/12/13 07:46:00;;;;;;;21.33;8.55;;;;;;;-1.21;59.11;99586.94;4385801;32;20168;-89
2022/12/13 07:48:26;;;;;;;20.45;8.80;;;;;;;-1.22;59.10;99591.19;4405567;32;20106;-88
2022/12/13 07:50:52;;;;;;;20.73;8.18;;;;;;;-1.23;59.10;99598.00;4410977;32;20157;-88
2022/12/13 07:53:17;;;;;;;21.15;8.88;;;;;;;-1.17;59.10;99593.84;4414265;32;20097;-88
2022/12/13 07:55:43;;;;;;;20.02;8.90;;;;;;;-0.89;59.12;99593.31;4408541;32;20178;-88
2022/12/13 07:58:10;;;;;;;25.60;10.20;;;;;;;-0.75;59.13;99589.19;4401147;32;20136;-88
2022/12/13 08:00:36;;;;;;;21.30;10.10;;;;;;;-0.85;59.13;99591.66;4383324;32;20586;-87
2022/12/13 08:03:02;;;;;;;22.13;10.27;;;;;;;-0.91;59.12;99589.03;4397970;32;20118;-87
2022/12/13 08:05:28;;;;;;;19.62;9.07;;;;;;;-0.77;59.13;99592.56;4385770;32;20102;-88
2022/12/13 08:07:53;;;;;;;19.00;9.07;;;;;;;-0.60;59.13;99590.22;4410699;32;20109;-89
2022/12/13 08:10:18;;;;;;;22.83;9.77;;;;;;;-0.49;59.15;99593.72;4388497;32;20427;-88
2022/12/13 08:12:44;;;;;;;23.20;9.63;;;;;;;-0.43;59.15;99597.22;4395716;32;20094;-88
2022/12/13 08:15:10;;;;;;;21.90;8.43;;;;;;;-0.42;59.15;99595.50;4397176;32;20173;-89
2022/12/13 08:17:35;;;;;;;21.77;8.88;;;;;;;-0.36;59.15;99600.66;4391137;32;20450;-89
2022/12/13 08:20:00;;;;;;;17.80;8.48;;;;;;;-0.42;59.15;99591.25;4397236;32;20097;-89
2022/12/13 08:22:26;;;;;;;18.83;8.43;;;;;;;-0.60;59.13;99598.72;4382731;32;20149;-89
2022/12/13 08:24:51;;;;;;;19.87;8.48;;;;;;;-0.49;59.15;99588.59;4415034;32;20135;-88
2022/12/13 08:27:17;;;;;;;17.87;7.78;;;;;;;-0.36;59.15;99591.31;4400598;32;20132;-89
2022/12/13 08:29:42;;;;;;;25.10;9.10;;;;;;;-0.20;59.16;99594.88;4398319;32;20141;-89
2022/12/13 08:32:09;;;;;;;19.83;9.25;;;;;;;-0.19;59.16;99598.28;4397572;32;20149;-89
2022/12/13 08:34:34;;;;;;;20.25;8.98;;;;;;;-0.28;59.16;99595.63;4385423;32;20140;-89
2022/12/13 08:37:00;;;;;;;20.02;8.98;;;;;;;0.07;59.17;99586.56;4410356;32;20102;-88
2022/12/13 08:39:25;;;;;;;24.25;8.95;;;;;;;-0.04;59.17;99591.56;4389285;32;20113;-88
2022/12/13 08:41:50;;;;;;;18.92;8.48;;;;;;;0.05;59.17;99588.25;4395295;32;20149;-89
2022/12/13 08:44:16;;;;;;;17.73;8.02;;;;;;;0.10;59.18;99591.69;4399990;32;20102;-88
2022/12/13 08:46:41;;;;;;;18.02;9.70;;;;;;;-0.05;59.17;99599.22;4395300;32;20143;-89
2022/12/13 08:49:07;;;;;;;18.23;8.73;;;;;;;-0.14;59.17;99596.59;4396608;32;20153;-88
2022/12/13 08:51:32;;;;;;;21.23;8.60;;;;;;;-0.01;59.17;99599.25;4390069;32;20193;-88
2022/12/13 08:53:57;;;;;;;17.98;8.55;;;;;;;0.36;59.19;99584.19;4396692;32;20182;-88
2022/12/13 08:56:23;;;;;;;20.27;9.85;;;;;;;0.51;59.19;99579.16;4400963;32;20127;-88
2022/12/13 08:58:50;;;;;;;31.10;10.48;;;;;;;0.46;59.20;99580.81;4397247;32;20090;-91
2022/12/13 09:01:15;;;;;;;21.05;9.35;;;;;;;0.46;59.20;99587.66;4396571;32;20169;-89
2022/12/13 09:03:41;;;;;;;26.25;10.75;;;;;;;0.59;59.21;99592.00;4410287;32;20461;-88
2022/12/13 09:06:14;;;;;;;27.87;11.35;;;;;;;0.82;59.22;99576.75;4392789;32;20155;-88
2022/12/13 09:08:40;;;;;;;26.02;11.10;;;;;;;0.88;59.22;99577.62;4385425;32;20390;-88
2022/12/13 09:11:05;;;;;;;18.58;8.20;;;;;;;0.83;59.22;99581.03;4385019;32;20082;-89
2022/12/13 09:13:32;;;;;;;17.30;8.10;;;;;;;0.84;59.22;99577.59;4394800;32;20149;-89
2022/12/13 09:15:58;;;;;;;17.85;7.90;;;;;;;0.87;59.22;99582.75;4388192;32;20094;-89
2022/12/13 09:18:24;;;;;;;21.67;8.52;;;;;;;0.92;59.22;99581.91;4384959;32;20093;-88
2022/12/13 09:20:49;;;;;;;18.50;8.50;;;;;;;1.24;59.24;99573.47;4382519;32;20098;-88
2022/12/13 09:23:15;;;;;;;13.50;8.18;;;;;;;1.31;59.24;99574.34;4415173;32;20157;-89
2022/12/13 09:25:40;;;;;;;17.45;8.88;;;;;;;1.31;59.24;99575.19;4408342;32;20473;-89
2022/12/13 09:28:06;;;;;;;17.50;7.22;;;;;;;1.29;59.25;99573.50;4406594;32;20184;-88
2022/12/13 09:30:32;;;;;;;17.33;7.50;;;;;;;1.45;59.25;99576.09;4396685;32;20094;-88
2022/12/13 09:32:57;;;;;;;17.45;7.82;;;;;;;1.60;59.26;99571.81;4405134;32;20113;-88
2022/12/13 09:35:23;;;;;;;16.02;6.68;;;;;;;1.81;59.28;99576.97;4406823;32;20102;-89
2022/12/13 09:37:49;;;;;;;18.17;7.18;;;;;;;1.79;59.27;99578.69;4388749;32;20113;-88
2022/12/13 09:40:22;;;;;;;16.92;6.75;;;;;;;1.58;59.26;99571.81;4407860;32;20121;-90
2022/12/13 09:42:49;;;;;;;13.43;7.28;;;;;;;1.78;59.28;99575.28;4390836;32;20106;-89
2022/12/13 09:45:15;;;;;;;13.73;6.35;;;;;;;1.97;59.28;99559.87;4396593;32;20167;-89
2022/12/13 09:47:41;;;;;;;13.82;5.57;;;;;;;2.08;59.29;99555.59;4409153;32;20101;-89
2022/12/13 09:50:11;;;;;;;13.60;6.65;;;;;;;2.14;59.29;99553.88;4406092;32;20124;-89
2022/12/13 09:52:38;;;;;;;11.23;5.97;;;;;;;2.38;59.31;99562.41;4396355;32;20101;-89
2022/12/13 09:55:25;;;;;;;9.63;5.05;;;;;;;2.29;59.30;99559.84;4398465;32;20106;-89
2022/12/13 09:57:50;;;;;;;11.60;5.80;;;;;;;2.43;59.32;99552.97;4411523;32;20101;-89
2022/12/13 10:00:21;;;;;;;11.43;5.80;;;;;;;2.41;59.31;99554.69;4384104;32;20102;-90
2022/12/13 10:02:51;;;;;;;11.48;6.00;;;;;;;2.41;59.31;99552.97;4399047;32;20183;-89
2022/12/13 10:05:20;;;;;;;;;;;;;;;2.49;59.31;99545.25;4400024;32;20097;-90
2022/12/13 10:07:45;;;;;;;9.70;4.82;;;;;;;2.52;59.32;99546.94;4401155;32;19969;-89
2022/12/13 10:10:13;;;;;;;11.05;5.32;;;;;;;2.70;59.32;99542.59;4399016;32;20115;-89
2022/12/13 10:12:38;;;;;;;14.27;6.90;;;;;;;2.69;59.32;99543.47;4396640;32;20899;-89
2022/12/13 10:15:04;;;;;;;15.52;6.25;;;;;;;2.77;59.33;99538.28;4408018;32;20117;-89
2022/12/13 10:17:35;;;;;;;11.68;5.55;;;;;;;2.83;59.34;99543.41;4408833;32;20078;-89
2022/12/13 10:20:00;;;;;;;11.40;5.75;;;;;;;2.85;59.33;99540.84;4398954;32;20120;-90
2022/12/13 10:22:26;;;;;;;11.12;5.32;;;;;;;2.88;59.34;99536.53;4390113;32;20447;-89
2022/12/13 10:24:56;;;;;;;14.68;6.37;;;;;;;3.03;59.35;99540.75;4396507;32;20111;-89
2022/12/13 10:27:34;;;;;;;;;;;;;;;2.89;59.34;99533.12;4399600;32;20093;-90
2022/12/13 10:30:06;;;;;;;10.30;5.20;;;;;;;2.94;59.33;99540.78;4399046;32;19984;-89
2022/12/13 10:32:33;;;;;;;12.50;6.18;;;;;;;2.80;59.32;99532.28;4389756;32;20173;-89
2022/12/13 10:34:59;;;;;;;13.45;5.68;;;;;;;3.00;59.34;99525.34;4396581;32;20177;-90
2022/12/13 10:37:26;;;;;;;15.10;6.78;;;;;;;2.94;59.33;99531.38;4423604;32;20131;-89
2022/12/13 10:39:51;;;;;;;13.10;6.15;;;;;;;3.14;59.35;99533.00;4411268;32;20171;-90
2022/12/13 10:42:18;;;;;;;13.43;5.93;;;;;;;3.14;59.35;99526.13;4397278;32;20111;-89
2022/12/13 10:44:43;;;;;;;11.57;5.62;;;;;;;3.00;59.34;99523.63;4396082;32;20101;-90
2022/12/13 10:47:09;;;;;;;13.00;6.50;;;;;;;3.11;59.35;99521.00;4417897;32;20103;-90
2022/12/13 10:49:55;;;;;;;13.43;5.35;;;;;;;3.14;59.35;99520.97;4411271;32;20109;-89
2022/12/13 10:52:28;;;;;;;12.40;5.40;;;;;;;3.19;59.35;99514.09;4408693;32;21593;-89
2022/12/13 10:54:54;;;;;;;10.82;5.15;;;;;;;3.18;59.35;99520.09;4403717;32;20140;-89
2022/12/13 10:57:20;;;;;;;12.70;5.60;;;;;;;3.20;59.35;99518.38;4385349;32;20058;-90
2022/12/13 10:59:47;;;;;;;11.35;4.97;;;;;;;3.14;59.35;99518.41;4383496;32;20120;-90
2022/12/13 11:02:38;;;;;;;9.07;4.40;;;;;;;3.37;59.36;99519.13;4384053;32;20141;-90
2022/12/13 11:05:22;;;;;;;9.30;5.03;;;;;;;3.30;59.35;99511.44;4395950;32;20856;-90
2022/12/13 11:07:47;;;;;;;10.52;4.53;;;;;;;3.42;59.37;99500.22;4427722;32;20406;-90
2022/12/13 11:10:24;;;;;;;8.50;3.97;;;;;;;3.31;59.36;99501.16;4408969;32;20112;-90
2022/12/13 11:12:50;;;;;;;8.93;4.32;;;;;;;3.45;59.36;99495.91;4406455;32;20118;-90
2022/12/13 11:15:21;;;;;;;10.88;4.80;;;;;;;3.51;59.37;99500.13;4395964;32;20106;-90
2022/12/13 11:17:52;;;;;;;8.88;4.30;;;;;;;3.43;59.36;99495.06;4399588;32;20121;-90
2022/12/13 11:20:27;;;;;;;8.52;3.60;;;;;;;3.44;59.36;99490.78;4387430;32;20075;-90
2022/12/13 11:23:02;;;;;;;8.40;3.67;;;;;;;3.43;59.36;99489.91;4396001;32;20102;-89
2022/12/13 11:25:41;;;;;;;6.75;3.20;;;;;;;3.26;59.36;99487.44;4425508;32;20147;-90
2022/12/13 11:28:12;;;;;;;9.02;3.80;;;;;;;3.33;59.36;99484.00;4393664;32;20124;-90
2022/12/13 11:30:45;;;;;;;9.43;4.53;;;;;;;3.35;59.36;99481.41;4408700;32;20467;-90
2022/12/13 11:33:11;;;;;;;9.13;4.22;;;;;;;3.31;59.36;99475.44;4401064;32;20121;-90
2022/12/13 11:36:01;;;;;;;12.37;4.62;;;;;;;3.34;59.36;99483.13;4410929;32;20472;-90
2022/12/13 11:38:29;;;;;;;9.15;4.85;;;;;;;3.39;59.37;99480.53;4396440;32;20211;-90